createdAt,value
2019-06-26T12:07:54.781Z,14384.00
2019-06-26T12:08:55.717Z,14368.00
2019-06-26T12:09:55.782Z,14244.00
2019-06-26T12:10:56.276Z,14180.00
2019-06-26T12:11:56.455Z,14108.00
2019-06-26T12:12:56.635Z,13984.00
2019-06-26T12:13:56.762Z,14112.00
2019-06-26T12:14:56.929Z,14168.00
2019-06-26T12:15:58.863Z,14176.00
2019-06-26T12:16:57.843Z,14252.00
2019-06-26T12:17:57.499Z,14476.00
2019-06-26T12:18:57.870Z,14452.00
2019-06-26T12:19:58.347Z,14312.00
2019-06-26T12:20:58.103Z,14784.00
2019-06-26T12:21:58.131Z,14720.00
2019-06-26T12:22:58.275Z,14848.00
2019-06-26T12:23:58.456Z,15008.00
2019-06-26T12:24:58.629Z,15168.00
2019-06-26T12:25:58.814Z,15232.00
2019-06-26T12:26:58.968Z,15072.00
2019-06-26T12:27:59.141Z,15328.00
2019-06-26T12:28:59.366Z,16064.00
2019-06-26T12:29:59.554Z,16640.00
2019-06-26T12:30:59.718Z,17920.00
2019-06-26T12:31:59.869Z,17920.00
2019-06-26T12:33:03.309Z,17568.00
2019-06-26T12:34:01.868Z,17920.00
2019-06-26T12:35:00.863Z,19136.00
2019-06-26T12:36:01.358Z,20480.00
2019-06-26T12:37:00.855Z,21312.00
2019-06-26T12:38:01.016Z,20032.00
2019-06-26T12:39:01.174Z,18304.00
2019-06-26T12:40:01.378Z,17088.00
2019-06-26T12:41:02.373Z,16416.00
2019-06-26T12:42:01.745Z,15808.00
2019-06-26T12:43:01.932Z,15744.00
2019-06-26T12:44:02.099Z,15680.00
2019-06-26T12:45:02.264Z,15776.00
2019-06-26T12:46:02.464Z,16096.00
2019-06-26T12:47:02.597Z,16160.00
2019-06-26T12:48:02.719Z,15616.00
2019-06-26T12:49:02.866Z,15616.00
2019-06-26T12:50:03.063Z,15584.00
2019-06-26T12:51:03.381Z,15936.00
2019-06-26T12:52:04.362Z,15968.00
2019-06-26T12:53:04.364Z,16064.00
2019-06-26T12:54:04.401Z,15840.00
2019-06-26T12:55:03.790Z,16320.00
2019-06-26T12:56:03.979Z,16352.00
2019-06-26T12:57:04.133Z,16544.00
2019-06-26T12:58:13.009Z,16352.00
2019-06-26T12:59:06.508Z,16512.00
2019-06-26T13:00:04.768Z,16608.00
2019-06-26T13:01:05.384Z,16384.00
2019-06-26T13:02:05.192Z,16288.00
2019-06-26T13:03:05.866Z,16064.00
2019-06-26T13:04:05.514Z,16256.00
2019-06-26T13:05:05.881Z,16384.00
2019-06-26T13:06:06.871Z,16256.00
2019-06-26T13:07:06.403Z,16352.00
2019-06-26T13:08:06.298Z,16384.00
2019-06-26T13:09:07.368Z,16512.00
2019-06-26T13:10:07.839Z,16768.00
2019-06-26T13:11:07.375Z,16832.00
2019-06-26T13:12:07.052Z,16960.00
2019-06-26T13:13:07.242Z,16928.00
2019-06-26T13:14:08.473Z,16992.00
2019-06-26T13:15:07.583Z,17248.00
2019-06-26T13:16:07.746Z,18848.00
2019-06-26T13:17:08.391Z,29856.00
2019-06-26T13:18:08.162Z,45216.00
2019-06-26T13:19:08.306Z,52640.00
2019-06-26T13:20:09.867Z,54176.00
2019-06-26T13:21:09.730Z,55168.00
2019-06-26T13:22:08.878Z,57216.00
2019-06-26T13:23:09.123Z,57184.00
2019-06-26T13:24:09.288Z,57376.00
2019-06-26T13:25:09.512Z,58496.00
2019-06-26T13:26:09.685Z,57408.00
2019-06-26T13:27:09.819Z,57888.00
2019-06-26T13:28:10.038Z,59680.00
2019-06-26T13:29:10.322Z,59424.00
2019-06-26T13:30:10.347Z,59744.00
2019-06-26T13:31:10.512Z,62816.00
2019-06-26T13:32:11.424Z,62240.00
2019-06-26T13:33:10.817Z,62880.00
2019-06-26T13:34:11.441Z,60192.00
2019-06-26T13:35:11.243Z,59840.00
2019-06-26T13:36:13.271Z,59584.00
2019-06-26T13:37:11.687Z,61312.00
2019-06-26T13:38:11.856Z,59840.00
2019-06-26T13:39:12.458Z,60288.00
2019-06-26T13:40:12.216Z,59712.00
2019-06-26T13:41:12.411Z,57568.00
2019-06-26T13:42:13.387Z,53184.00
2019-06-26T13:43:13.780Z,49568.00
2019-06-26T13:44:12.952Z,51808.00
2019-06-26T13:45:13.147Z,55584.00
2019-06-26T13:46:13.327Z,55616.00
2019-06-26T13:47:14.398Z,55104.00
2019-06-26T13:48:13.670Z,56288.00
2019-06-26T13:49:16.483Z,57504.00
2019-06-26T13:50:14.953Z,57440.00
2019-06-26T13:51:14.950Z,59168.00
2019-06-26T13:52:14.355Z,56512.00
2019-06-26T13:53:14.526Z,51136.00
2019-06-26T13:54:14.708Z,54976.00
2019-06-26T13:55:14.903Z,59424.00
2019-06-26T13:56:15.895Z,56064.00
2019-06-26T13:57:16.064Z,54752.00
2019-06-26T13:58:17.398Z,57056.00
2019-06-26T13:59:15.909Z,58272.00
2019-06-26T14:00:16.411Z,58688.00
2019-06-26T14:01:15.945Z,60768.00
2019-06-26T14:02:19.724Z,60576.00
2019-06-26T14:03:16.894Z,57856.00
2019-06-26T14:04:16.576Z,57344.00
2019-06-26T14:05:16.779Z,57024.00
2019-06-26T14:06:16.906Z,55712.00
2019-06-26T14:07:17.096Z,55584.00
2019-06-26T14:08:17.275Z,54272.00
2019-06-26T14:09:17.446Z,52960.00
2019-06-26T14:10:17.918Z,54400.00
2019-06-26T14:11:17.817Z,58240.00
2019-06-26T14:12:19.275Z,60800.00
2019-06-26T14:13:19.221Z,61728.00
2019-06-26T14:14:18.373Z,64256.00
2019-06-26T14:15:19.409Z,62656.00
2019-06-26T14:16:18.814Z,58656.00
2019-06-26T14:17:18.998Z,57728.00
2019-06-26T14:18:19.906Z,59680.00
2019-06-26T14:19:19.413Z,65024.00
2019-06-26T14:20:19.474Z,64224.00
2019-06-26T14:21:25.550Z,62304.00
2019-06-26T14:22:22.404Z,60448.00
2019-06-26T14:23:20.909Z,61920.00
2019-06-26T14:24:20.207Z,30752.00
2019-06-26T14:25:20.392Z,52736.00
2019-06-26T14:26:20.923Z,41376.00
2019-06-26T14:27:20.694Z,53568.00
2019-06-26T14:28:20.896Z,27936.00
2019-06-26T14:29:21.560Z,36928.00
2019-06-26T14:30:22.919Z,35936.00
2019-06-26T14:31:21.596Z,22336.00
2019-06-26T14:32:22.409Z,22432.00
2019-06-26T14:33:21.960Z,13856.00
2019-06-26T14:34:22.907Z,15368.00
2019-06-26T14:35:22.323Z,16224.00
2019-06-26T14:36:23.506Z,19040.00
2019-06-26T14:37:23.912Z,19200.00
2019-06-26T14:38:22.814Z,16032.00
2019-06-26T14:39:23.001Z,19168.00
2019-06-26T14:40:23.918Z,18656.00
2019-06-26T14:41:23.321Z,15596.00
2019-06-26T14:42:23.916Z,16896.00
2019-06-26T14:43:23.719Z,12948.00
2019-06-26T14:44:24.417Z,12568.00
2019-06-26T14:45:24.083Z,12652.00
2019-06-26T14:46:24.273Z,12804.00
2019-06-26T14:47:24.935Z,12856.00
2019-06-26T14:48:24.604Z,12984.00
2019-06-26T14:49:25.795Z,12992.00
2019-06-26T14:50:25.924Z,13416.00
2019-06-26T14:51:40.917Z,13488.00
2019-06-26T14:52:26.460Z,13208.00
2019-06-26T14:53:25.526Z,12968.00
2019-06-26T14:54:25.733Z,13300.00
2019-06-26T14:55:25.955Z,13476.00
2019-06-26T14:56:26.179Z,13320.00
2019-06-26T14:57:26.407Z,13616.00
2019-06-26T14:58:26.946Z,16000.00
2019-06-26T14:59:26.871Z,23488.00
2019-06-26T15:00:27.083Z,24288.00
2019-06-26T15:01:27.291Z,14648.00
2019-06-26T15:02:27.514Z,16160.00
2019-06-26T15:03:27.728Z,14132.00
2019-06-26T15:04:27.926Z,12844.00
2019-06-26T15:05:28.932Z,12708.00
2019-06-26T15:06:28.356Z,12400.00
2019-06-26T15:07:29.422Z,12280.00
2019-06-26T15:08:28.943Z,13152.00
2019-06-26T15:09:28.946Z,12284.00
2019-06-26T15:10:29.144Z,12652.00
2019-06-26T15:11:29.345Z,13416.00
2019-06-26T15:12:29.532Z,14716.00
2019-06-26T15:13:29.747Z,16768.00
2019-06-26T15:14:29.931Z,14092.00
2019-06-26T15:15:30.940Z,16028.00
2019-06-26T15:16:30.627Z,14380.00
2019-06-26T15:17:31.568Z,23008.00
2019-06-26T15:18:31.837Z,73664.00
2019-06-26T15:19:30.991Z,63296.00
2019-06-26T15:20:31.443Z,66432.00
2019-06-26T15:21:31.353Z,67360.00
2019-06-26T15:22:31.496Z,66144.00
2019-06-26T15:23:31.650Z,63424.00
2019-06-26T15:24:31.945Z,32160.00
2019-06-26T15:25:32.445Z,61568.00
2019-06-26T15:26:32.939Z,63264.00
2019-06-26T15:27:32.325Z,58048.00
2019-06-26T15:28:32.495Z,47104.00
2019-06-26T15:29:32.646Z,34976.00
2019-06-26T15:30:32.948Z,27008.00
2019-06-26T15:31:32.970Z,24160.00
2019-06-26T15:32:33.934Z,18880.00
2019-06-26T15:33:36.558Z,21440.00
2019-06-26T15:34:34.542Z,24768.00
2019-06-26T15:35:33.948Z,22176.00
2019-06-26T15:36:33.995Z,20096.00
2019-06-26T15:37:34.955Z,14300.00
2019-06-26T15:38:34.371Z,13152.00
2019-06-26T15:39:35.454Z,13844.00
2019-06-26T15:40:34.718Z,17248.00
2019-06-26T15:41:34.949Z,19136.00
2019-06-26T15:42:35.128Z,19264.00
2019-06-26T15:43:35.303Z,19488.00
2019-06-26T15:44:36.447Z,15272.00
2019-06-26T15:45:35.626Z,27200.00
2019-06-26T15:46:35.853Z,34816.00
2019-06-26T15:47:36.044Z,39200.00
2019-06-26T15:48:36.239Z,48160.00
2019-06-26T15:49:36.426Z,49984.00
2019-06-26T15:50:36.635Z,45152.00
2019-06-26T15:51:36.869Z,21984.00
2019-06-26T15:52:37.469Z,18240.00
2019-06-26T15:53:37.302Z,13184.00
2019-06-26T15:54:37.476Z,12820.00
2019-06-26T15:55:37.662Z,13944.00
2019-06-26T15:56:37.875Z,15456.00
2019-06-26T15:57:38.457Z,13836.00
2019-06-26T15:58:38.265Z,16160.00
2019-06-26T15:59:38.465Z,54496.00
2019-06-26T16:00:38.614Z,54688.00
2019-06-26T16:01:39.461Z,51008.00
2019-06-26T16:02:39.034Z,53216.00
2019-06-26T16:03:39.260Z,52512.00
2019-06-26T16:04:39.455Z,50272.00
2019-06-26T16:05:39.664Z,49792.00
2019-06-26T16:06:39.843Z,50368.00
2019-06-26T16:07:40.458Z,46848.00
2019-06-26T16:08:40.283Z,51424.00
2019-06-26T16:09:41.454Z,51296.00
2019-06-26T16:10:40.609Z,53792.00
2019-06-26T16:11:41.464Z,52832.00
2019-06-26T16:12:41.072Z,53152.00
2019-06-26T16:13:41.181Z,48992.00
2019-06-26T16:14:41.376Z,48160.00
2019-06-26T16:15:41.492Z,48672.00
2019-06-26T16:16:41.689Z,48736.00
2019-06-26T16:17:42.483Z,50688.00
2019-06-26T16:18:43.262Z,48288.00
2019-06-26T16:19:43.978Z,47136.00
2019-06-26T16:20:42.382Z,46624.00
2019-06-26T16:21:42.777Z,46272.00
2019-06-26T16:22:42.731Z,45696.00
2019-06-26T16:23:42.958Z,43360.00
2019-06-26T16:24:43.962Z,42144.00
2019-06-26T16:25:43.186Z,45504.00
2019-06-26T16:26:43.413Z,48128.00
2019-06-26T16:27:43.627Z,48288.00
2019-06-26T16:28:43.892Z,46432.00
2019-06-26T16:29:44.119Z,43264.00
2019-06-26T16:30:44.324Z,43552.00
2019-06-26T16:31:44.515Z,46784.00
2019-06-26T16:32:44.720Z,46624.00
2019-06-26T16:33:44.962Z,45824.00
2019-06-26T16:34:45.469Z,41920.00
2019-06-26T16:35:46.980Z,18432.00
2019-06-26T16:36:46.477Z,40864.00
2019-06-26T16:37:46.464Z,37024.00
2019-06-26T16:38:45.751Z,32192.00
2019-06-26T16:39:45.954Z,38912.00
2019-06-26T16:40:46.142Z,42656.00
2019-06-26T16:41:48.969Z,43744.00
2019-06-26T16:42:47.579Z,42816.00
2019-06-26T16:43:46.724Z,40832.00
2019-06-26T16:44:46.953Z,42720.00
2019-06-26T16:45:47.065Z,42752.00
2019-06-26T16:46:47.970Z,43392.00
2019-06-26T16:47:47.380Z,44800.00
2019-06-26T16:48:47.595Z,43936.00
2019-06-26T16:49:47.822Z,43424.00
2019-06-26T16:50:48.989Z,42816.00
2019-06-26T16:51:48.163Z,42080.00
2019-06-26T16:52:49.914Z,43200.00
2019-06-26T16:53:49.515Z,40128.00
2019-06-26T16:54:48.673Z,38688.00
2019-06-26T16:55:48.988Z,39424.00
2019-06-26T16:56:49.977Z,41248.00
2019-06-26T16:57:49.151Z,39776.00
2019-06-26T16:58:49.330Z,37824.00
2019-06-26T16:59:49.489Z,33632.00
2019-06-26T17:00:49.696Z,24704.00
2019-06-26T17:01:49.868Z,19616.00
2019-06-26T17:02:50.042Z,17952.00
2019-06-26T17:03:50.324Z,16928.00
2019-06-26T17:04:50.980Z,16672.00
2019-06-26T17:05:50.535Z,17472.00
2019-06-26T17:06:50.716Z,15744.00
2019-06-26T17:07:50.967Z,14464.00
2019-06-26T17:08:51.135Z,15360.00
2019-06-26T17:09:51.329Z,15584.00
2019-06-26T17:10:51.524Z,14368.00
2019-06-26T17:11:51.998Z,15360.00
2019-06-26T17:12:52.507Z,16224.00
2019-06-26T17:13:52.159Z,14944.00
2019-06-26T17:14:52.372Z,16384.00
2019-06-26T17:15:52.550Z,9536.00
2019-06-26T17:16:53.783Z,10192.00
2019-06-26T17:17:52.949Z,12384.00
2019-06-26T17:18:53.122Z,7628.00
2019-06-26T17:19:53.328Z,7240.00
2019-06-26T17:20:53.518Z,6400.00
2019-06-26T17:21:54.808Z,8172.00
2019-06-26T17:23:05.240Z,8160.00
2019-06-26T17:23:56.116Z,8664.00
2019-06-26T17:24:54.997Z,11708.00
2019-06-26T17:25:54.399Z,9052.00
2019-06-26T17:26:54.992Z,7576.00
2019-06-26T17:27:54.799Z,7572.00
2019-06-26T17:28:55.547Z,6904.00
2019-06-26T17:29:55.264Z,6848.00
2019-06-26T17:30:55.370Z,7880.00
2019-06-26T17:31:55.580Z,16032.00
2019-06-26T17:32:56.505Z,11800.00
2019-06-26T17:33:55.922Z,8356.00
2019-06-26T17:34:56.096Z,7336.00
2019-06-26T17:35:56.274Z,7972.00
2019-06-26T17:36:56.484Z,8128.00
2019-06-26T17:37:56.683Z,7400.00
2019-06-26T17:38:56.862Z,7044.00
2019-06-26T17:39:57.996Z,7248.00
2019-06-26T17:40:59.488Z,7060.00
2019-06-26T17:41:58.520Z,6940.00
2019-06-26T17:43:11.236Z,6692.00
2019-06-26T17:44:00.014Z,6536.00
2019-06-26T17:44:57.859Z,6396.00
2019-06-26T17:45:58.029Z,8200.00
2019-06-26T17:46:58.238Z,6544.00
2019-06-26T17:47:58.514Z,6456.00
2019-06-26T17:48:59.531Z,5984.00
2019-06-26T17:49:58.670Z,6084.00
2019-06-26T17:50:59.497Z,5640.00
2019-06-26T17:51:59.127Z,8656.00
2019-06-26T17:53:00.011Z,5812.00
2019-06-26T17:53:59.410Z,11060.00
2019-06-26T17:54:59.632Z,7184.00
2019-06-26T17:55:59.846Z,7972.00
2019-06-26T17:57:01.008Z,6460.00
2019-06-26T17:58:00.198Z,5488.00
2019-06-26T17:59:00.512Z,5304.00
2019-06-26T18:00:00.627Z,5180.00
2019-06-26T18:01:00.817Z,5040.00
2019-06-26T18:02:01.042Z,4924.00
2019-06-26T18:03:01.198Z,4788.00
2019-06-26T18:04:01.400Z,4672.00
2019-06-26T18:05:01.571Z,4564.00
2019-06-26T18:06:02.542Z,4476.00
2019-06-26T18:07:01.889Z,4360.00
2019-06-26T18:08:03.019Z,4304.00
2019-06-26T18:09:02.372Z,4244.00
2019-06-26T18:10:02.449Z,4200.00
2019-06-26T18:11:02.682Z,4140.00
2019-06-26T18:12:02.902Z,4080.00
2019-06-26T18:13:03.111Z,3996.00
2019-06-26T18:14:03.530Z,3948.00
2019-06-26T18:15:04.005Z,3896.00
2019-06-26T18:16:03.700Z,3816.00
2019-06-26T18:17:03.923Z,3712.00
2019-06-26T18:18:04.108Z,3640.00
2019-06-26T18:19:04.523Z,3572.00
2019-06-26T18:20:04.430Z,3512.00
2019-06-26T18:21:05.061Z,3456.00
2019-06-26T18:22:04.841Z,3408.00
2019-06-26T18:23:07.535Z,3340.00
2019-06-26T18:24:06.249Z,3268.00
2019-06-26T18:25:05.527Z,3200.00
2019-06-26T18:26:13.113Z,3160.00
2019-06-26T18:27:07.762Z,3088.00
2019-06-26T18:28:06.521Z,3004.00
2019-06-26T18:29:06.055Z,2960.00
2019-06-26T18:30:06.266Z,2912.00
2019-06-26T18:31:07.015Z,2860.00
2019-06-26T18:32:06.710Z,2804.00
2019-06-26T18:33:06.905Z,2732.00
2019-06-26T18:34:07.123Z,2692.00
2019-06-26T18:35:07.535Z,2600.00
2019-06-26T18:36:07.469Z,2564.00
2019-06-26T18:37:08.539Z,2552.00
2019-06-26T18:38:07.829Z,2532.00
2019-06-26T18:39:08.530Z,2468.00
2019-06-26T18:40:08.545Z,2432.00
2019-06-26T18:41:08.366Z,2356.00
2019-06-26T18:42:10.043Z,2316.00
2019-06-26T18:43:08.701Z,2228.00
2019-06-26T18:44:08.885Z,2172.00
2019-06-26T18:45:09.535Z,2136.00
2019-06-26T18:46:10.043Z,2096.00
2019-06-26T18:47:09.370Z,2052.00
2019-06-26T18:48:09.579Z,2004.00
2019-06-26T18:49:09.756Z,1928.00
2019-06-26T18:50:09.955Z,1820.00
2019-06-26T18:51:10.549Z,1664.00
2019-06-26T18:52:10.330Z,1512.00
2019-06-26T18:53:11.044Z,1444.00
2019-06-26T18:54:10.740Z,1344.00
2019-06-26T18:55:10.835Z,1232.00
2019-06-26T18:56:11.054Z,1172.00
2019-06-26T18:57:11.257Z,1172.00
2019-06-26T18:58:11.440Z,1240.00
2019-06-26T18:59:11.665Z,1308.00
2019-06-26T19:00:11.866Z,1300.00
2019-06-26T19:01:12.544Z,1268.00
2019-06-26T19:02:12.222Z,1240.00
2019-06-26T19:03:12.435Z,1200.00
2019-06-26T19:04:13.035Z,1172.00
2019-06-26T19:05:12.849Z,1144.00
2019-06-26T19:06:13.060Z,1116.00
2019-06-26T19:07:13.539Z,1088.00
2019-06-26T19:08:13.486Z,1056.00
2019-06-26T19:09:13.649Z,1028.00
2019-06-26T19:10:14.041Z,992.00
2019-06-26T19:11:13.984Z,960.00
2019-06-26T19:12:14.162Z,936.00
2019-06-26T19:13:14.367Z,900.00
2019-06-26T19:14:14.571Z,872.00
2019-06-26T19:15:14.739Z,840.00
2019-06-26T19:16:14.954Z,816.00
2019-06-26T19:17:15.569Z,780.00
2019-06-26T19:18:15.289Z,752.00
2019-06-26T19:19:16.034Z,720.00
2019-06-26T19:20:16.078Z,696.00
2019-06-26T19:21:15.883Z,668.00
2019-06-26T19:22:17.045Z,640.00
2019-06-26T19:23:17.041Z,608.00
2019-06-26T19:24:16.456Z,588.00
2019-06-26T19:25:16.667Z,560.00
2019-06-26T19:26:17.519Z,540.00
2019-06-26T19:27:18.074Z,516.00
2019-06-26T19:28:17.556Z,496.00
2019-06-26T19:29:17.551Z,472.00
2019-06-26T19:30:17.636Z,444.00
2019-06-26T19:31:17.823Z,424.00
2019-06-26T19:32:18.014Z,404.00
2019-06-26T19:33:18.183Z,384.00
2019-06-26T19:34:18.569Z,364.00
2019-06-26T19:35:20.054Z,344.00
2019-06-26T19:36:18.678Z,328.00
2019-06-26T19:37:18.864Z,316.00
2019-06-26T19:38:19.552Z,292.00
2019-06-26T19:39:20.881Z,276.00
2019-06-26T19:40:23.787Z,260.00
2019-06-26T19:41:19.554Z,248.00
2019-06-26T19:42:19.752Z,232.00
2019-06-26T19:43:19.933Z,220.00
2019-06-26T19:44:20.131Z,204.00
2019-06-26T19:45:20.550Z,192.00
2019-06-26T19:46:21.044Z,180.00
2019-06-26T19:47:21.544Z,168.00
2019-06-26T19:48:20.820Z,156.00
2019-06-26T19:49:20.994Z,148.00
2019-06-26T19:50:23.577Z,136.00
2019-06-26T19:51:23.068Z,128.00
2019-06-26T19:52:21.452Z,120.00
2019-06-26T19:53:21.764Z,108.00
2019-06-26T19:54:27.071Z,100.00
2019-06-26T19:55:24.085Z,92.00
2019-06-26T19:56:23.072Z,84.00
2019-06-26T19:57:22.379Z,80.00
2019-06-26T19:58:22.623Z,72.00
2019-06-26T19:59:22.870Z,64.00
2019-06-26T20:00:23.111Z,56.00
2019-06-26T20:01:24.044Z,52.00
2019-06-26T20:02:23.562Z,48.00
2019-06-26T20:03:23.494Z,44.00
2019-06-26T20:04:23.702Z,36.00
2019-06-26T20:05:23.928Z,36.00
2019-06-26T20:06:24.144Z,28.00
2019-06-26T20:07:24.573Z,24.00
2019-06-26T20:08:25.077Z,28.00
2019-06-26T20:09:25.566Z,20.00
2019-06-26T20:10:24.986Z,20.00
2019-06-26T20:11:25.158Z,16.00
2019-06-26T20:12:25.326Z,16.00
2019-06-26T20:13:25.529Z,12.00
2019-06-26T20:14:25.706Z,12.00
2019-06-26T20:15:26.062Z,12.00
2019-06-26T20:16:26.096Z,8.00
2019-06-26T20:17:26.364Z,8.00
2019-06-26T20:18:26.541Z,8.00
2019-06-26T20:19:26.729Z,8.00
2019-06-26T20:20:27.070Z,8.00
2019-06-26T20:21:27.139Z,4.00
2019-06-26T20:22:27.328Z,4.00
2019-06-26T20:23:27.517Z,4.00
2019-06-26T20:24:42.985Z,4.00
2019-06-26T20:25:29.827Z,4.00
2019-06-26T20:26:27.958Z,4.00
2019-06-26T20:27:28.164Z,4.00
2019-06-26T20:28:28.347Z,4.00
2019-06-26T20:29:28.574Z,0.00
2019-06-26T20:30:29.567Z,4.00
2019-06-26T20:31:28.956Z,4.00
2019-06-26T20:32:29.130Z,4.00
2019-06-26T20:33:29.277Z,4.00
2019-06-26T20:34:29.523Z,0.00
2019-06-26T20:35:31.897Z,0.00
2019-06-26T20:36:30.782Z,0.00
2019-06-26T20:37:30.658Z,0.00
2019-06-26T20:38:30.152Z,0.00
2019-06-26T20:39:31.054Z,4.00
2019-06-26T20:40:30.612Z,4.00
2019-06-26T20:41:31.556Z,4.00
2019-06-26T20:42:31.004Z,4.00
2019-06-26T20:43:31.195Z,4.00
2019-06-26T20:44:31.391Z,4.00
2019-06-26T20:45:32.068Z,4.00
2019-06-26T20:46:31.731Z,4.00
2019-06-26T20:47:31.963Z,4.00
2019-06-26T20:48:32.137Z,4.00
2019-06-26T20:49:32.351Z,4.00
2019-06-26T20:50:32.560Z,4.00
2019-06-26T20:51:33.566Z,0.00
2019-06-26T20:52:33.092Z,0.00
2019-06-26T20:53:33.155Z,0.00
2019-06-26T20:54:33.381Z,0.00
2019-06-26T20:55:33.586Z,0.00
2019-06-26T20:56:35.089Z,0.00
2019-06-26T20:57:33.988Z,0.00
2019-06-26T20:58:34.192Z,0.00
2019-06-26T20:59:35.060Z,0.00
2019-06-26T21:00:35.074Z,0.00
2019-06-26T21:01:35.093Z,0.00
2019-06-26T21:02:35.577Z,0.00
2019-06-26T21:03:35.099Z,0.00
2019-06-26T21:04:35.281Z,0.00
2019-06-26T21:05:36.083Z,0.00
2019-06-26T21:06:36.087Z,0.00
2019-06-26T21:07:35.739Z,0.00
2019-06-26T21:08:36.595Z,0.00
2019-06-26T21:09:37.074Z,0.00
2019-06-26T21:10:36.334Z,0.00
2019-06-26T21:11:36.581Z,0.00
2019-06-26T21:12:36.695Z,0.00
2019-06-26T21:13:36.860Z,0.00
2019-06-26T21:14:37.051Z,0.00
2019-06-26T21:15:37.229Z,0.00
2019-06-26T21:16:37.592Z,0.00
2019-06-26T21:17:37.640Z,0.00
2019-06-26T21:18:37.815Z,0.00
2019-06-26T21:19:38.576Z,0.00
2019-06-26T21:20:38.161Z,0.00
2019-06-26T21:21:38.641Z,0.00
2019-06-26T21:22:39.080Z,0.00
2019-06-26T21:23:38.766Z,0.00
2019-06-26T21:24:38.917Z,0.00
2019-06-26T21:25:39.104Z,0.00
2019-06-26T21:26:39.582Z,0.00
2019-06-26T21:27:39.527Z,0.00
2019-06-26T21:28:40.585Z,0.00
2019-06-26T21:29:39.845Z,0.00
2019-06-26T21:30:40.023Z,0.00
2019-06-26T21:31:40.613Z,0.00
2019-06-26T21:32:41.080Z,0.00
2019-06-26T21:33:41.092Z,0.00
2019-06-26T21:34:40.747Z,0.00
2019-06-26T21:35:40.929Z,0.00
2019-06-26T21:36:41.593Z,0.00
2019-06-26T21:37:42.073Z,0.00
2019-06-26T21:38:41.515Z,0.00
2019-06-26T21:39:42.617Z,0.00
2019-06-26T21:40:41.905Z,0.00
2019-06-26T21:41:42.095Z,0.00
2019-06-26T21:42:42.299Z,0.00
2019-06-26T21:43:42.622Z,0.00
2019-06-26T21:44:42.676Z,0.00
2019-06-26T21:45:43.576Z,0.00
2019-06-26T21:46:43.108Z,0.00
2019-06-26T21:47:43.308Z,0.00
2019-06-26T21:48:43.517Z,0.00
2019-06-26T21:49:44.585Z,0.00
2019-06-26T21:50:44.583Z,0.00
2019-06-26T21:51:44.586Z,0.00
2019-06-26T21:52:45.092Z,0.00
2019-06-26T21:53:44.593Z,0.00
2019-06-26T21:54:44.505Z,0.00
2019-06-26T21:55:44.692Z,0.00
2019-06-26T21:56:45.585Z,0.00
2019-06-26T21:57:46.158Z,0.00
2019-06-26T21:58:45.595Z,0.00
2019-06-26T21:59:45.525Z,0.00
2019-06-26T22:00:45.733Z,0.00
2019-06-26T22:01:45.928Z,0.00
2019-06-26T22:02:46.130Z,0.00
2019-06-26T22:03:46.347Z,0.00
2019-06-26T22:04:46.535Z,0.00
2019-06-26T22:05:47.586Z,0.00
2019-06-26T22:06:47.602Z,0.00
2019-06-26T22:07:47.147Z,0.00
2019-06-26T22:08:47.605Z,0.00
2019-06-26T22:09:47.598Z,0.00
2019-06-26T22:10:49.485Z,0.00
2019-06-26T22:11:48.628Z,0.00
2019-06-26T22:12:48.019Z,0.00
2019-06-26T22:13:48.421Z,0.00
2019-06-26T22:14:48.419Z,0.00
2019-06-26T22:15:49.603Z,0.00
2019-06-26T22:16:48.747Z,0.00
2019-06-26T22:17:49.668Z,0.00
2019-06-26T22:18:49.077Z,0.00
2019-06-26T22:19:49.268Z,0.00
2019-06-26T22:20:49.458Z,0.00
2019-06-26T22:21:49.637Z,0.00
2019-06-26T22:22:49.820Z,0.00
2019-06-26T22:23:49.988Z,0.00
2019-06-26T22:24:50.188Z,0.00
2019-06-26T22:25:51.550Z,0.00
2019-06-26T22:26:51.488Z,0.00
2019-06-26T22:27:51.590Z,0.00
2019-06-26T22:28:50.851Z,0.00
2019-06-26T22:29:51.112Z,0.00
2019-06-26T22:30:51.272Z,0.00
2019-06-26T22:31:51.616Z,0.00
2019-06-26T22:32:52.615Z,0.00
2019-06-26T22:33:51.863Z,0.00
2019-06-26T22:34:52.132Z,0.00
2019-06-26T22:35:52.162Z,0.00
2019-06-26T22:36:53.105Z,0.00
2019-06-26T22:37:52.493Z,0.00
2019-06-26T22:38:52.632Z,0.00
2019-06-26T22:39:52.801Z,0.00
2019-06-26T22:40:53.118Z,0.00
2019-06-26T22:41:53.605Z,0.00
2019-06-26T22:42:53.345Z,0.00
2019-06-26T22:43:53.486Z,0.00
2019-06-26T22:44:54.589Z,0.00
2019-06-26T22:45:53.965Z,0.00
2019-06-26T22:46:54.113Z,0.00
2019-06-26T22:47:55.095Z,0.00
2019-06-26T22:48:55.110Z,0.00
2019-06-26T22:49:54.590Z,0.00
2019-06-26T22:50:55.639Z,0.00
2019-06-26T22:51:54.914Z,0.00
2019-06-26T22:52:55.073Z,0.00
2019-06-26T22:53:56.101Z,0.00
2019-06-26T22:54:55.469Z,0.00
2019-06-26T22:56:07.021Z,0.00
2019-06-26T22:56:56.785Z,0.00
2019-06-26T22:57:55.931Z,0.00
2019-06-26T22:58:56.617Z,0.00
2019-06-26T22:59:56.260Z,0.00
2019-06-26T23:00:57.127Z,0.00
2019-06-26T23:01:57.118Z,0.00
2019-06-26T23:02:56.788Z,0.00
2019-06-26T23:03:56.967Z,0.00
2019-06-26T23:04:57.167Z,0.00
2019-06-26T23:05:58.142Z,0.00
2019-06-26T23:06:57.527Z,0.00
2019-06-26T23:07:58.148Z,0.00
2019-06-26T23:08:57.937Z,0.00
2019-06-26T23:09:59.161Z,0.00
2019-06-26T23:10:58.638Z,0.00
2019-06-26T23:11:58.421Z,0.00
2019-06-26T23:12:59.112Z,0.00
2019-06-26T23:13:58.772Z,0.00
2019-06-26T23:14:58.946Z,0.00
2019-06-26T23:16:00.129Z,0.00
2019-06-26T23:17:00.122Z,0.00
2019-06-26T23:17:59.624Z,0.00
2019-06-26T23:18:59.660Z,0.00
2019-06-26T23:20:00.615Z,0.00
2019-06-26T23:20:59.997Z,0.00
2019-06-26T23:22:00.231Z,0.00
2019-06-26T23:23:00.428Z,0.00
2019-06-26T23:24:00.598Z,0.00
2019-06-26T23:25:01.149Z,0.00
2019-06-26T23:26:00.953Z,0.00
2019-06-26T23:27:01.612Z,0.00
2019-06-26T23:28:02.115Z,0.00
2019-06-26T23:29:01.508Z,0.00
2019-06-26T23:30:02.380Z,0.00
2019-06-26T23:31:01.788Z,0.00
2019-06-26T23:32:03.399Z,0.00
2019-06-26T23:33:03.052Z,0.00
2019-06-26T23:34:02.629Z,0.00
2019-06-26T23:35:02.413Z,0.00
2019-06-26T23:36:02.568Z,0.00
2019-06-26T23:37:03.618Z,0.00
2019-06-26T23:38:03.612Z,0.00
2019-06-26T23:39:03.119Z,0.00
2019-06-26T23:40:03.645Z,0.00
2019-06-26T23:41:03.427Z,0.00
2019-06-26T23:42:04.149Z,0.00
2019-06-26T23:43:04.616Z,0.00
2019-06-26T23:44:03.997Z,0.00
2019-06-26T23:45:05.118Z,0.00
2019-06-26T23:46:04.306Z,0.00
2019-06-26T23:47:04.481Z,0.00
2019-06-26T23:48:05.616Z,0.00
2019-06-26T23:49:05.612Z,0.00
2019-06-26T23:50:05.101Z,0.00
2019-06-26T23:51:05.629Z,0.00
2019-06-26T23:52:06.122Z,0.00
2019-06-26T23:53:05.631Z,0.00
2019-06-26T23:54:05.856Z,0.00
2019-06-26T23:55:06.637Z,0.00
2019-06-26T23:56:06.634Z,0.00
2019-06-26T23:57:06.392Z,0.00
2019-06-26T23:58:06.572Z,0.00
2019-06-26T23:59:06.727Z,0.00
